sensor_id;sensor_type;location;lat;lon;timestamp;P1;durP1;ratioP1;P2;durP2;ratioP2
13185;SDS011;6658;53.080;7.428;2023-02-22T00:00:39;20.93;;;13.50;;
13185;SDS011;6658;53.080;7.428;2023-02-22T00:05:41;20.13;;;13.73;;
13185;SDS011;6658;53.080;7.428;2023-02-22T00:08:14;20.37;;;14.10;;
13185;SDS011;6658;53.080;7.428;2023-02-22T00:10:41;19.63;;;13.63;;
13185;SDS011;6658;53.080;7.428;2023-02-22T00:13:07;19.50;;;13.50;;
13185;SDS011;6658;53.080;7.428;2023-02-22T00:15:35;20.40;;;14.23;;
13185;SDS011;6658;53.080;7.428;2023-02-22T00:18:01;20.20;;;13.47;;
13185;SDS011;6658;53.080;7.428;2023-02-22T00:20:28;19.67;;;13.53;;
13185;SDS011;6658;53.080;7.428;2023-02-22T00:22:54;18.97;;;13.37;;
13185;SDS011;6658;53.080;7.428;2023-02-22T00:25:21;20.53;;;14.27;;
13185;SDS011;6658;53.080;7.428;2023-02-22T00:27:49;19.40;;;13.27;;
13185;SDS011;6658;53.080;7.428;2023-02-22T00:30:23;20.53;;;13.73;;
13185;SDS011;6658;53.080;7.428;2023-02-22T00:32:51;18.60;;;12.63;;
13185;SDS011;6658;53.080;7.428;2023-02-22T00:35:20;20.80;;;13.83;;
13185;SDS011;6658;53.080;7.428;2023-02-22T00:37:48;20.37;;;13.90;;
13185;SDS011;6658;53.080;7.428;2023-02-22T00:40:17;20.27;;;14.07;;
13185;SDS011;6658;53.080;7.428;2023-02-22T00:42:44;21.30;;;14.97;;
13185;SDS011;6658;53.080;7.428;2023-02-22T00:45:10;19.87;;;14.77;;
13185;SDS011;6658;53.080;7.428;2023-02-22T00:47:37;19.83;;;14.00;;
13185;SDS011;6658;53.080;7.428;2023-02-22T00:50:03;18.20;;;13.60;;
13185;SDS011;6658;53.080;7.428;2023-02-22T00:52:29;21.60;;;14.33;;
13185;SDS011;6658;53.080;7.428;2023-02-22T00:54:55;21.23;;;13.40;;
13185;SDS011;6658;53.080;7.428;2023-02-22T00:57:21;22.67;;;15.63;;
13185;SDS011;6658;53.080;7.428;2023-02-22T00:59:48;19.20;;;14.27;;
13185;SDS011;6658;53.080;7.428;2023-02-22T01:02:14;22.57;;;15.67;;
13185;SDS011;6658;53.080;7.428;2023-02-22T01:04:40;22.73;;;15.00;;
13185;SDS011;6658;53.080;7.428;2023-02-22T01:07:05;23.73;;;15.43;;
13185;SDS011;6658;53.080;7.428;2023-02-22T01:09:31;23.77;;;15.77;;
13185;SDS011;6658;53.080;7.428;2023-02-22T01:11:58;24.23;;;15.60;;
13185;SDS011;6658;53.080;7.428;2023-02-22T01:14:25;24.70;;;15.37;;
13185;SDS011;6658;53.080;7.428;2023-02-22T01:16:52;21.43;;;15.00;;
13185;SDS011;6658;53.080;7.428;2023-02-22T01:19:19;23.60;;;15.43;;
13185;SDS011;6658;53.080;7.428;2023-02-22T01:21:45;25.27;;;16.73;;
13185;SDS011;6658;53.080;7.428;2023-02-22T01:24:12;24.47;;;15.87;;
13185;SDS011;6658;53.080;7.428;2023-02-22T01:26:41;26.97;;;16.50;;
13185;SDS011;6658;53.080;7.428;2023-02-22T01:29:17;25.23;;;16.30;;
13185;SDS011;6658;53.080;7.428;2023-02-22T01:31:49;22.73;;;15.80;;
13185;SDS011;6658;53.080;7.428;2023-02-22T01:34:18;26.00;;;16.83;;
13185;SDS011;6658;53.080;7.428;2023-02-22T01:36:44;23.50;;;15.83;;
13185;SDS011;6658;53.080;7.428;2023-02-22T01:39:10;22.60;;;15.20;;
13185;SDS011;6658;53.080;7.428;2023-02-22T01:41:36;25.23;;;16.27;;
13185;SDS011;6658;53.080;7.428;2023-02-22T01:46:53;22.47;;;15.00;;
13185;SDS011;6658;53.080;7.428;2023-02-22T01:49:20;23.97;;;14.87;;
13185;SDS011;6658;53.080;7.428;2023-02-22T01:51:54;21.37;;;15.27;;
13185;SDS011;6658;53.080;7.428;2023-02-22T01:54:24;23.57;;;15.63;;
13185;SDS011;6658;53.080;7.428;2023-02-22T01:59:31;26.60;;;16.13;;
13185;SDS011;6658;53.080;7.428;2023-02-22T02:02:00;23.47;;;15.57;;
13185;SDS011;6658;53.080;7.428;2023-02-22T02:04:28;26.17;;;16.23;;
13185;SDS011;6658;53.080;7.428;2023-02-22T02:06:57;26.23;;;15.63;;
13185;SDS011;6658;53.080;7.428;2023-02-22T02:11:59;21.10;;;14.60;;
13185;SDS011;6658;53.080;7.428;2023-02-22T02:14:26;26.50;;;16.30;;
13185;SDS011;6658;53.080;7.428;2023-02-22T02:16:55;22.53;;;14.67;;
13185;SDS011;6658;53.080;7.428;2023-02-22T02:19:44;24.67;;;15.87;;
13185;SDS011;6658;53.080;7.428;2023-02-22T02:39:01;23.80;;;15.53;;
13185;SDS011;6658;53.080;7.428;2023-02-22T02:41:32;23.23;;;15.47;;
13185;SDS011;6658;53.080;7.428;2023-02-22T02:49:34;23.13;;;14.53;;
13185;SDS011;6658;53.080;7.428;2023-02-22T02:52:09;24.13;;;15.03;;
13185;SDS011;6658;53.080;7.428;2023-02-22T02:54:37;23.37;;;16.17;;
13185;SDS011;6658;53.080;7.428;2023-02-22T02:57:03;22.70;;;15.13;;
13185;SDS011;6658;53.080;7.428;2023-02-22T03:13:29;23.43;;;14.23;;
13185;SDS011;6658;53.080;7.428;2023-02-22T03:27:05;21.00;;;14.03;;
13185;SDS011;6658;53.080;7.428;2023-02-22T03:29:40;21.83;;;14.20;;
13185;SDS011;6658;53.080;7.428;2023-02-22T03:32:11;20.97;;;14.83;;
13185;SDS011;6658;53.080;7.428;2023-02-22T03:34:41;22.57;;;15.37;;
13185;SDS011;6658;53.080;7.428;2023-02-22T03:37:13;24.37;;;15.00;;
13185;SDS011;6658;53.080;7.428;2023-02-22T03:39:43;23.03;;;15.17;;
13185;SDS011;6658;53.080;7.428;2023-02-22T03:42:13;20.40;;;14.40;;
13185;SDS011;6658;53.080;7.428;2023-02-22T03:44:43;22.43;;;14.17;;
13185;SDS011;6658;53.080;7.428;2023-02-22T03:47:13;21.20;;;14.47;;
13185;SDS011;6658;53.080;7.428;2023-02-22T03:49:52;21.47;;;14.97;;
13185;SDS011;6658;53.080;7.428;2023-02-22T03:52:31;21.83;;;14.33;;
13185;SDS011;6658;53.080;7.428;2023-02-22T03:54:59;22.10;;;14.10;;
13185;SDS011;6658;53.080;7.428;2023-02-22T03:57:26;21.03;;;14.93;;
13185;SDS011;6658;53.080;7.428;2023-02-22T03:59:55;23.10;;;15.87;;
13185;SDS011;6658;53.080;7.428;2023-02-22T04:02:21;22.50;;;15.40;;
13185;SDS011;6658;53.080;7.428;2023-02-22T04:04:47;21.37;;;15.50;;
13185;SDS011;6658;53.080;7.428;2023-02-22T04:07:13;21.70;;;14.80;;
13185;SDS011;6658;53.080;7.428;2023-02-22T04:09:39;20.97;;;13.53;;
13185;SDS011;6658;53.080;7.428;2023-02-22T04:12:05;23.47;;;15.10;;
13185;SDS011;6658;53.080;7.428;2023-02-22T04:14:31;21.47;;;14.47;;
13185;SDS011;6658;53.080;7.428;2023-02-22T04:17:00;21.03;;;14.23;;
13185;SDS011;6658;53.080;7.428;2023-02-22T04:19:26;21.63;;;13.77;;
13185;SDS011;6658;53.080;7.428;2023-02-22T04:21:52;18.83;;;13.97;;
13185;SDS011;6658;53.080;7.428;2023-02-22T04:24:17;20.90;;;14.20;;
13185;SDS011;6658;53.080;7.428;2023-02-22T04:26:43;21.20;;;14.47;;
13185;SDS011;6658;53.080;7.428;2023-02-22T04:29:08;19.27;;;12.93;;
13185;SDS011;6658;53.080;7.428;2023-02-22T04:31:34;18.63;;;13.40;;
13185;SDS011;6658;53.080;7.428;2023-02-22T04:34:00;20.17;;;13.77;;
13185;SDS011;6658;53.080;7.428;2023-02-22T04:36:27;19.20;;;13.30;;
13185;SDS011;6658;53.080;7.428;2023-02-22T04:38:56;21.70;;;13.73;;
13185;SDS011;6658;53.080;7.428;2023-02-22T04:41:22;18.83;;;13.63;;
13185;SDS011;6658;53.080;7.428;2023-02-22T04:43:48;23.37;;;15.07;;
13185;SDS011;6658;53.080;7.428;2023-02-22T04:46:14;19.97;;;13.80;;
13185;SDS011;6658;53.080;7.428;2023-02-22T04:48:40;20.13;;;13.33;;
13185;SDS011;6658;53.080;7.428;2023-02-22T04:51:06;20.80;;;14.73;;
13185;SDS011;6658;53.080;7.428;2023-02-22T04:53:32;19.97;;;14.00;;
13185;SDS011;6658;53.080;7.428;2023-02-22T04:55:58;20.60;;;13.90;;
13185;SDS011;6658;53.080;7.428;2023-02-22T04:58:25;22.77;;;13.17;;
13185;SDS011;6658;53.080;7.428;2023-02-22T05:00:51;18.70;;;12.60;;
13185;SDS011;6658;53.080;7.428;2023-02-22T05:03:17;18.17;;;12.60;;
13185;SDS011;6658;53.080;7.428;2023-02-22T05:05:43;19.30;;;12.20;;
13185;SDS011;6658;53.080;7.428;2023-02-22T05:08:08;16.40;;;12.20;;
13185;SDS011;6658;53.080;7.428;2023-02-22T05:10:34;19.13;;;13.33;;
13185;SDS011;6658;53.080;7.428;2023-02-22T05:13:00;18.80;;;12.70;;
13185;SDS011;6658;53.080;7.428;2023-02-22T05:15:26;17.10;;;12.37;;
13185;SDS011;6658;53.080;7.428;2023-02-22T05:17:51;16.83;;;11.77;;
13185;SDS011;6658;53.080;7.428;2023-02-22T05:20:30;15.63;;;11.43;;
13185;SDS011;6658;53.080;7.428;2023-02-22T05:22:58;19.20;;;13.17;;
13185;SDS011;6658;53.080;7.428;2023-02-22T05:25:25;18.03;;;12.83;;
13185;SDS011;6658;53.080;7.428;2023-02-22T05:27:52;17.43;;;11.73;;
13185;SDS011;6658;53.080;7.428;2023-02-22T05:30:24;17.20;;;11.57;;
13185;SDS011;6658;53.080;7.428;2023-02-22T05:32:52;15.97;;;12.00;;
13185;SDS011;6658;53.080;7.428;2023-02-22T05:35:19;15.93;;;11.53;;
13185;SDS011;6658;53.080;7.428;2023-02-22T05:37:45;15.07;;;11.53;;
13185;SDS011;6658;53.080;7.428;2023-02-22T05:40:11;17.93;;;12.50;;
13185;SDS011;6658;53.080;7.428;2023-02-22T05:42:38;16.40;;;12.10;;
13185;SDS011;6658;53.080;7.428;2023-02-22T05:45:05;16.07;;;12.37;;
13185;SDS011;6658;53.080;7.428;2023-02-22T05:47:32;17.20;;;12.07;;
13185;SDS011;6658;53.080;7.428;2023-02-22T05:49:57;16.87;;;11.70;;
13185;SDS011;6658;53.080;7.428;2023-02-22T05:52:23;16.43;;;11.97;;
13185;SDS011;6658;53.080;7.428;2023-02-22T05:54:49;15.07;;;11.30;;
13185;SDS011;6658;53.080;7.428;2023-02-22T05:57:15;19.67;;;11.57;;
13185;SDS011;6658;53.080;7.428;2023-02-22T05:59:41;16.63;;;12.00;;
13185;SDS011;6658;53.080;7.428;2023-02-22T06:02:07;15.00;;;11.60;;
13185;SDS011;6658;53.080;7.428;2023-02-22T06:04:33;16.40;;;12.10;;
13185;SDS011;6658;53.080;7.428;2023-02-22T06:06:58;17.07;;;11.03;;
13185;SDS011;6658;53.080;7.428;2023-02-22T06:09:24;15.83;;;11.00;;
13185;SDS011;6658;53.080;7.428;2023-02-22T06:11:50;12.57;;;10.33;;
13185;SDS011;6658;53.080;7.428;2023-02-22T06:14:16;15.23;;;11.60;;
13185;SDS011;6658;53.080;7.428;2023-02-22T06:16:41;16.03;;;11.63;;
13185;SDS011;6658;53.080;7.428;2023-02-22T06:19:07;16.43;;;11.10;;
13185;SDS011;6658;53.080;7.428;2023-02-22T06:21:33;14.87;;;10.90;;
13185;SDS011;6658;53.080;7.428;2023-02-22T06:24:00;14.07;;;10.87;;
13185;SDS011;6658;53.080;7.428;2023-02-22T06:26:28;16.53;;;11.63;;
13185;SDS011;6658;53.080;7.428;2023-02-22T06:28:54;15.33;;;11.60;;
13185;SDS011;6658;53.080;7.428;2023-02-22T06:31:19;15.03;;;11.60;;
13185;SDS011;6658;53.080;7.428;2023-02-22T06:33:45;15.70;;;12.13;;
13185;SDS011;6658;53.080;7.428;2023-02-22T06:36:11;14.17;;;11.30;;
13185;SDS011;6658;53.080;7.428;2023-02-22T06:38:37;16.27;;;11.73;;
13185;SDS011;6658;53.080;7.428;2023-02-22T06:41:02;14.07;;;11.23;;
13185;SDS011;6658;53.080;7.428;2023-02-22T06:43:28;13.77;;;11.03;;
13185;SDS011;6658;53.080;7.428;2023-02-22T06:45:54;15.43;;;12.30;;
13185;SDS011;6658;53.080;7.428;2023-02-22T06:48:19;14.37;;;10.87;;
13185;SDS011;6658;53.080;7.428;2023-02-22T06:50:45;16.60;;;11.47;;
13185;SDS011;6658;53.080;7.428;2023-02-22T06:53:11;13.37;;;10.70;;
13185;SDS011;6658;53.080;7.428;2023-02-22T06:55:37;14.53;;;11.70;;
13185;SDS011;6658;53.080;7.428;2023-02-22T06:58:03;14.37;;;11.13;;
13185;SDS011;6658;53.080;7.428;2023-02-22T07:00:29;14.73;;;10.27;;
13185;SDS011;6658;53.080;7.428;2023-02-22T07:02:56;15.47;;;10.93;;
13185;SDS011;6658;53.080;7.428;2023-02-22T07:05:23;17.53;;;11.53;;
13185;SDS011;6658;53.080;7.428;2023-02-22T07:07:50;14.70;;;11.07;;
13185;SDS011;6658;53.080;7.428;2023-02-22T07:10:24;15.20;;;11.47;;
13185;SDS011;6658;53.080;7.428;2023-02-22T07:12:52;15.00;;;11.30;;
13185;SDS011;6658;53.080;7.428;2023-02-22T07:15:19;14.47;;;11.20;;
13185;SDS011;6658;53.080;7.428;2023-02-22T07:17:47;14.37;;;11.27;;
13185;SDS011;6658;53.080;7.428;2023-02-22T07:20:13;19.43;;;13.47;;
13185;SDS011;6658;53.080;7.428;2023-02-22T07:22:40;14.23;;;11.57;;
13185;SDS011;6658;53.080;7.428;2023-02-22T07:25:06;15.30;;;11.97;;
13185;SDS011;6658;53.080;7.428;2023-02-22T07:27:36;15.87;;;11.97;;
13185;SDS011;6658;53.080;7.428;2023-02-22T07:30:06;14.07;;;11.50;;
13185;SDS011;6658;53.080;7.428;2023-02-22T07:32:41;15.17;;;11.43;;
13185;SDS011;6658;53.080;7.428;2023-02-22T07:35:12;12.97;;;10.77;;
13185;SDS011;6658;53.080;7.428;2023-02-22T07:37:40;16.13;;;11.37;;
13185;SDS011;6658;53.080;7.428;2023-02-22T07:40:06;14.93;;;10.70;;
13185;SDS011;6658;53.080;7.428;2023-02-22T07:42:32;13.47;;;10.97;;
13185;SDS011;6658;53.080;7.428;2023-02-22T07:44:58;14.43;;;11.73;;
13185;SDS011;6658;53.080;7.428;2023-02-22T07:47:23;16.60;;;10.90;;
13185;SDS011;6658;53.080;7.428;2023-02-22T07:49:49;13.70;;;10.87;;
13185;SDS011;6658;53.080;7.428;2023-02-22T07:52:14;15.10;;;10.83;;
13185;SDS011;6658;53.080;7.428;2023-02-22T07:54:41;14.23;;;11.27;;
13185;SDS011;6658;53.080;7.428;2023-02-22T07:57:10;13.57;;;10.50;;
13185;SDS011;6658;53.080;7.428;2023-02-22T07:59:37;17.90;;;12.43;;
13185;SDS011;6658;53.080;7.428;2023-02-22T08:02:03;13.00;;;11.17;;
13185;SDS011;6658;53.080;7.428;2023-02-22T08:04:29;13.97;;;10.80;;
13185;SDS011;6658;53.080;7.428;2023-02-22T08:06:54;12.47;;;10.07;;
13185;SDS011;6658;53.080;7.428;2023-02-22T08:09:20;14.10;;;10.67;;
13185;SDS011;6658;53.080;7.428;2023-02-22T08:11:47;13.93;;;11.23;;
13185;SDS011;6658;53.080;7.428;2023-02-22T08:14:14;13.70;;;10.80;;
13185;SDS011;6658;53.080;7.428;2023-02-22T08:16:41;14.17;;;11.30;;
13185;SDS011;6658;53.080;7.428;2023-02-22T08:19:06;14.37;;;11.40;;
13185;SDS011;6658;53.080;7.428;2023-02-22T08:21:32;14.30;;;10.67;;
13185;SDS011;6658;53.080;7.428;2023-02-22T08:23:58;15.57;;;11.70;;
13185;SDS011;6658;53.080;7.428;2023-02-22T08:26:23;14.53;;;11.60;;
13185;SDS011;6658;53.080;7.428;2023-02-22T08:28:49;14.03;;;10.80;;
13185;SDS011;6658;53.080;7.428;2023-02-22T08:31:15;16.57;;;11.57;;
13185;SDS011;6658;53.080;7.428;2023-02-22T08:33:40;13.37;;;10.77;;
13185;SDS011;6658;53.080;7.428;2023-02-22T08:36:06;14.17;;;10.70;;
13185;SDS011;6658;53.080;7.428;2023-02-22T08:38:32;13.63;;;10.73;;
13185;SDS011;6658;53.080;7.428;2023-02-22T08:40:58;13.17;;;10.93;;
13185;SDS011;6658;53.080;7.428;2023-02-22T08:43:24;16.80;;;12.23;;
13185;SDS011;6658;53.080;7.428;2023-02-22T08:45:50;15.03;;;11.27;;
13185;SDS011;6658;53.080;7.428;2023-02-22T08:48:16;13.87;;;10.77;;
13185;SDS011;6658;53.080;7.428;2023-02-22T08:50:42;15.37;;;11.97;;
13185;SDS011;6658;53.080;7.428;2023-02-22T08:53:08;15.87;;;11.90;;
13185;SDS011;6658;53.080;7.428;2023-02-22T08:55:36;14.90;;;11.37;;
13185;SDS011;6658;53.080;7.428;2023-02-22T08:58:03;17.40;;;14.17;;
13185;SDS011;6658;53.080;7.428;2023-02-22T09:00:33;15.27;;;13.03;;
13185;SDS011;6658;53.080;7.428;2023-02-22T09:02:59;18.17;;;13.67;;
13185;SDS011;6658;53.080;7.428;2023-02-22T09:05:26;16.13;;;12.80;;
13185;SDS011;6658;53.080;7.428;2023-02-22T09:07:52;16.63;;;12.73;;
13185;SDS011;6658;53.080;7.428;2023-02-22T09:10:29;15.33;;;12.60;;
13185;SDS011;6658;53.080;7.428;2023-02-22T09:12:56;17.63;;;13.10;;
13185;SDS011;6658;53.080;7.428;2023-02-22T09:15:25;14.53;;;11.77;;
13185;SDS011;6658;53.080;7.428;2023-02-22T09:17:51;16.23;;;12.07;;
13185;SDS011;6658;53.080;7.428;2023-02-22T09:20:18;15.57;;;13.20;;
13185;SDS011;6658;53.080;7.428;2023-02-22T09:22:45;15.23;;;12.40;;
13185;SDS011;6658;53.080;7.428;2023-02-22T09:25:12;14.90;;;12.23;;
13185;SDS011;6658;53.080;7.428;2023-02-22T09:27:39;15.57;;;12.50;;
13185;SDS011;6658;53.080;7.428;2023-02-22T09:30:05;17.17;;;12.40;;
13185;SDS011;6658;53.080;7.428;2023-02-22T09:32:35;17.03;;;12.43;;
13185;SDS011;6658;53.080;7.428;2023-02-22T09:35:01;16.93;;;12.60;;
13185;SDS011;6658;53.080;7.428;2023-02-22T09:37:27;15.60;;;12.17;;
13185;SDS011;6658;53.080;7.428;2023-02-22T09:39:53;15.70;;;11.93;;
13185;SDS011;6658;53.080;7.428;2023-02-22T09:47:14;17.37;;;13.57;;
13185;SDS011;6658;53.080;7.428;2023-02-22T09:49:53;20.23;;;14.77;;
13185;SDS011;6658;53.080;7.428;2023-02-22T09:52:36;17.63;;;14.13;;
13185;SDS011;6658;53.080;7.428;2023-02-22T09:57:41;19.63;;;15.70;;
13185;SDS011;6658;53.080;7.428;2023-02-22T10:00:19;20.97;;;15.03;;
13185;SDS011;6658;53.080;7.428;2023-02-22T10:05:39;21.07;;;15.63;;
13185;SDS011;6658;53.080;7.428;2023-02-22T10:08:15;20.83;;;15.20;;
13185;SDS011;6658;53.080;7.428;2023-02-22T10:10:46;19.97;;;14.90;;
13185;SDS011;6658;53.080;7.428;2023-02-22T10:13:28;21.83;;;16.47;;
13185;SDS011;6658;53.080;7.428;2023-02-22T10:24:10;23.00;;;16.10;;
13185;SDS011;6658;53.080;7.428;2023-02-22T10:26:44;19.13;;;15.00;;
13185;SDS011;6658;53.080;7.428;2023-02-22T10:31:47;22.90;;;16.97;;
13185;SDS011;6658;53.080;7.428;2023-02-22T10:34:21;23.63;;;16.90;;
13185;SDS011;6658;53.080;7.428;2023-02-22T10:36:53;22.03;;;16.47;;
13185;SDS011;6658;53.080;7.428;2023-02-22T10:39:27;25.53;;;18.27;;
13185;SDS011;6658;53.080;7.428;2023-02-22T10:41:56;23.90;;;17.63;;
13185;SDS011;6658;53.080;7.428;2023-02-22T10:44:33;29.63;;;19.07;;
13185;SDS011;6658;53.080;7.428;2023-02-22T10:47:00;24.17;;;19.20;;
13185;SDS011;6658;53.080;7.428;2023-02-22T10:50:12;26.00;;;19.40;;
13185;SDS011;6658;53.080;7.428;2023-02-22T10:52:24;24.67;;;18.23;;
13185;SDS011;6658;53.080;7.428;2023-02-22T10:54:56;25.27;;;18.60;;
13185;SDS011;6658;53.080;7.428;2023-02-22T10:57:30;23.13;;;18.30;;
13185;SDS011;6658;53.080;7.428;2023-02-22T11:00:12;23.60;;;17.27;;
13185;SDS011;6658;53.080;7.428;2023-02-22T11:02:38;26.13;;;19.03;;
13185;SDS011;6658;53.080;7.428;2023-02-22T11:05:25;23.90;;;17.87;;
13185;SDS011;6658;53.080;7.428;2023-02-22T11:08:12;22.87;;;18.50;;
13185;SDS011;6658;53.080;7.428;2023-02-22T11:10:44;25.90;;;18.13;;
13185;SDS011;6658;53.080;7.428;2023-02-22T11:13:22;26.67;;;19.63;;
13185;SDS011;6658;53.080;7.428;2023-02-22T11:15:54;26.23;;;18.00;;
13185;SDS011;6658;53.080;7.428;2023-02-22T11:18:25;26.17;;;18.10;;
13185;SDS011;6658;53.080;7.428;2023-02-22T11:21:00;23.90;;;18.70;;
13185;SDS011;6658;53.080;7.428;2023-02-22T11:23:29;23.37;;;18.67;;
13185;SDS011;6658;53.080;7.428;2023-02-22T11:26:00;24.93;;;18.23;;
13185;SDS011;6658;53.080;7.428;2023-02-22T11:28:29;25.23;;;18.70;;
13185;SDS011;6658;53.080;7.428;2023-02-22T11:33:45;26.57;;;19.43;;
13185;SDS011;6658;53.080;7.428;2023-02-22T11:39:05;24.17;;;18.87;;
13185;SDS011;6658;53.080;7.428;2023-02-22T11:41:45;26.60;;;18.80;;
13185;SDS011;6658;53.080;7.428;2023-02-22T11:44:20;23.30;;;18.87;;
13185;SDS011;6658;53.080;7.428;2023-02-22T11:46:48;22.77;;;18.37;;
13185;SDS011;6658;53.080;7.428;2023-02-22T11:49:15;23.13;;;18.17;;
13185;SDS011;6658;53.080;7.428;2023-02-22T11:57:36;25.23;;;18.80;;
13185;SDS011;6658;53.080;7.428;2023-02-22T12:05:27;25.00;;;18.67;;
13185;SDS011;6658;53.080;7.428;2023-02-22T12:19:30;24.67;;;18.50;;
13185;SDS011;6658;53.080;7.428;2023-02-22T12:22:02;24.07;;;20.07;;
13185;SDS011;6658;53.080;7.428;2023-02-22T12:24:39;27.33;;;19.67;;
13185;SDS011;6658;53.080;7.428;2023-02-22T12:29:46;24.87;;;19.10;;
13185;SDS011;6658;53.080;7.428;2023-02-22T12:32:31;25.90;;;19.60;;
13185;SDS011;6658;53.080;7.428;2023-02-22T12:35:29;24.93;;;18.67;;
13185;SDS011;6658;53.080;7.428;2023-02-22T12:38:05;27.43;;;20.20;;
13185;SDS011;6658;53.080;7.428;2023-02-22T12:46:26;22.77;;;18.43;;
13185;SDS011;6658;53.080;7.428;2023-02-22T12:49:09;25.50;;;19.47;;
13185;SDS011;6658;53.080;7.428;2023-02-22T13:03:20;23.90;;;18.50;;
13185;SDS011;6658;53.080;7.428;2023-02-22T13:08:37;23.37;;;18.23;;
13185;SDS011;6658;53.080;7.428;2023-02-22T13:14:10;23.13;;;17.27;;
13185;SDS011;6658;53.080;7.428;2023-02-22T13:19:57;22.80;;;19.07;;
13185;SDS011;6658;53.080;7.428;2023-02-22T13:23:10;23.13;;;17.63;;
13185;SDS011;6658;53.080;7.428;2023-02-22T13:28:17;24.77;;;18.57;;
13185;SDS011;6658;53.080;7.428;2023-02-22T13:30:49;24.17;;;18.97;;
13185;SDS011;6658;53.080;7.428;2023-02-22T13:52:44;22.17;;;17.50;;
13185;SDS011;6658;53.080;7.428;2023-02-22T13:55:16;23.37;;;17.77;;
13185;SDS011;6658;53.080;7.428;2023-02-22T13:57:46;21.83;;;17.47;;
13185;SDS011;6658;53.080;7.428;2023-02-22T14:08:05;22.00;;;17.27;;
13185;SDS011;6658;53.080;7.428;2023-02-22T14:10:36;19.60;;;16.30;;
13185;SDS011;6658;53.080;7.428;2023-02-22T14:13:08;19.10;;;16.17;;
13185;SDS011;6658;53.080;7.428;2023-02-22T14:15:34;21.53;;;16.70;;
13185;SDS011;6658;53.080;7.428;2023-02-22T14:18:03;20.17;;;16.40;;
13185;SDS011;6658;53.080;7.428;2023-02-22T14:24:05;19.93;;;16.20;;
13185;SDS011;6658;53.080;7.428;2023-02-22T14:26:51;20.97;;;16.00;;
13185;SDS011;6658;53.080;7.428;2023-02-22T14:28:56;18.93;;;15.50;;
13185;SDS011;6658;53.080;7.428;2023-02-22T14:36:50;19.60;;;15.13;;
13185;SDS011;6658;53.080;7.428;2023-02-22T14:39:30;17.90;;;13.70;;
13185;SDS011;6658;53.080;7.428;2023-02-22T14:50:16;14.97;;;12.17;;
13185;SDS011;6658;53.080;7.428;2023-02-22T14:52:54;15.53;;;12.13;;
13185;SDS011;6658;53.080;7.428;2023-02-22T14:55:29;15.23;;;12.47;;
13185;SDS011;6658;53.080;7.428;2023-02-22T15:00:44;13.50;;;12.00;;
13185;SDS011;6658;53.080;7.428;2023-02-22T15:03:18;13.90;;;11.67;;
13185;SDS011;6658;53.080;7.428;2023-02-22T15:05:48;16.30;;;12.10;;
13185;SDS011;6658;53.080;7.428;2023-02-22T15:08:15;13.77;;;11.30;;
13185;SDS011;6658;53.080;7.428;2023-02-22T15:10:46;12.37;;;10.47;;
13185;SDS011;6658;53.080;7.428;2023-02-22T15:15:42;13.50;;;10.93;;
13185;SDS011;6658;53.080;7.428;2023-02-22T15:20:57;14.93;;;10.97;;
13185;SDS011;6658;53.080;7.428;2023-02-22T15:23:28;11.93;;;10.43;;
13185;SDS011;6658;53.080;7.428;2023-02-22T15:26:02;12.23;;;10.93;;
13185;SDS011;6658;53.080;7.428;2023-02-22T15:28:29;13.37;;;11.07;;
13185;SDS011;6658;53.080;7.428;2023-02-22T15:31:17;11.90;;;10.30;;
13185;SDS011;6658;53.080;7.428;2023-02-22T15:33:49;11.83;;;9.97;;
13185;SDS011;6658;53.080;7.428;2023-02-22T15:36:17;13.93;;;10.30;;
13185;SDS011;6658;53.080;7.428;2023-02-22T15:38:48;10.30;;;9.23;;
13185;SDS011;6658;53.080;7.428;2023-02-22T15:41:20;13.07;;;10.67;;
13185;SDS011;6658;53.080;7.428;2023-02-22T15:46:23;13.13;;;9.73;;
13185;SDS011;6658;53.080;7.428;2023-02-22T15:51:39;14.07;;;11.17;;
13185;SDS011;6658;53.080;7.428;2023-02-22T15:54:10;12.13;;;10.77;;
13185;SDS011;6658;53.080;7.428;2023-02-22T15:56:40;14.00;;;10.47;;
13185;SDS011;6658;53.080;7.428;2023-02-22T15:59:15;12.67;;;10.57;;
13185;SDS011;6658;53.080;7.428;2023-02-22T16:01:44;12.23;;;10.50;;
13185;SDS011;6658;53.080;7.428;2023-02-22T16:04:20;12.07;;;9.67;;
13185;SDS011;6658;53.080;7.428;2023-02-22T16:06:48;12.07;;;10.67;;
13185;SDS011;6658;53.080;7.428;2023-02-22T16:14:47;12.43;;;10.63;;
13185;SDS011;6658;53.080;7.428;2023-02-22T16:19:49;12.60;;;10.37;;
13185;SDS011;6658;53.080;7.428;2023-02-22T16:22:32;12.87;;;11.13;;
13185;SDS011;6658;53.080;7.428;2023-02-22T16:27:45;11.27;;;10.17;;
13185;SDS011;6658;53.080;7.428;2023-02-22T16:32:46;11.63;;;10.43;;
13185;SDS011;6658;53.080;7.428;2023-02-22T16:35:13;13.20;;;10.60;;
13185;SDS011;6658;53.080;7.428;2023-02-22T16:37:46;12.93;;;11.40;;
13185;SDS011;6658;53.080;7.428;2023-02-22T16:40:23;12.90;;;10.73;;
13185;SDS011;6658;53.080;7.428;2023-02-22T16:43:03;12.30;;;11.10;;
13185;SDS011;6658;53.080;7.428;2023-02-22T16:45:31;12.63;;;10.93;;
13185;SDS011;6658;53.080;7.428;2023-02-22T16:47:57;12.37;;;11.10;;
13185;SDS011;6658;53.080;7.428;2023-02-22T16:50:24;17.10;;;14.47;;
13185;SDS011;6658;53.080;7.428;2023-02-22T16:52:51;13.90;;;11.53;;
13185;SDS011;6658;53.080;7.428;2023-02-22T16:55:19;13.27;;;11.40;;
13185;SDS011;6658;53.080;7.428;2023-02-22T16:57:46;12.93;;;11.50;;
13185;SDS011;6658;53.080;7.428;2023-02-22T17:00:13;13.27;;;11.47;;
13185;SDS011;6658;53.080;7.428;2023-02-22T17:02:41;12.33;;;11.03;;
13185;SDS011;6658;53.080;7.428;2023-02-22T17:05:11;12.50;;;11.20;;
13185;SDS011;6658;53.080;7.428;2023-02-22T17:07:39;12.50;;;11.20;;
13185;SDS011;6658;53.080;7.428;2023-02-22T17:10:06;14.90;;;11.47;;
13185;SDS011;6658;53.080;7.428;2023-02-22T17:12:38;12.90;;;10.97;;
13185;SDS011;6658;53.080;7.428;2023-02-22T17:15:09;15.73;;;11.97;;
13185;SDS011;6658;53.080;7.428;2023-02-22T17:17:42;13.13;;;11.43;;
13185;SDS011;6658;53.080;7.428;2023-02-22T17:20:08;14.53;;;12.13;;
13185;SDS011;6658;53.080;7.428;2023-02-22T17:22:35;12.60;;;11.30;;
13185;SDS011;6658;53.080;7.428;2023-02-22T17:25:01;18.13;;;12.63;;
13185;SDS011;6658;53.080;7.428;2023-02-22T17:27:36;14.30;;;12.50;;
13185;SDS011;6658;53.080;7.428;2023-02-22T17:30:02;16.00;;;12.13;;
13185;SDS011;6658;53.080;7.428;2023-02-22T17:32:28;14.83;;;12.40;;
13185;SDS011;6658;53.080;7.428;2023-02-22T17:34:54;14.37;;;12.37;;
13185;SDS011;6658;53.080;7.428;2023-02-22T17:37:20;15.43;;;13.33;;
13185;SDS011;6658;53.080;7.428;2023-02-22T17:39:45;15.50;;;12.73;;
13185;SDS011;6658;53.080;7.428;2023-02-22T17:42:11;15.83;;;13.37;;
13185;SDS011;6658;53.080;7.428;2023-02-22T17:44:39;16.00;;;13.07;;
13185;SDS011;6658;53.080;7.428;2023-02-22T17:47:06;16.27;;;13.47;;
13185;SDS011;6658;53.080;7.428;2023-02-22T17:49:32;14.47;;;12.90;;
13185;SDS011;6658;53.080;7.428;2023-02-22T17:51:57;15.87;;;13.17;;
13185;SDS011;6658;53.080;7.428;2023-02-22T17:54:23;17.73;;;14.77;;
13185;SDS011;6658;53.080;7.428;2023-02-22T17:56:50;16.77;;;14.73;;
13185;SDS011;6658;53.080;7.428;2023-02-22T17:59:16;18.20;;;14.47;;
13185;SDS011;6658;53.080;7.428;2023-02-22T18:01:42;19.57;;;16.03;;
13185;SDS011;6658;53.080;7.428;2023-02-22T18:04:08;26.13;;;19.47;;
13185;SDS011;6658;53.080;7.428;2023-02-22T18:06:33;22.43;;;17.23;;
13185;SDS011;6658;53.080;7.428;2023-02-22T18:09:02;19.77;;;16.67;;
13185;SDS011;6658;53.080;7.428;2023-02-22T18:11:34;18.87;;;16.50;;
13185;SDS011;6658;53.080;7.428;2023-02-22T18:14:01;21.00;;;15.70;;
13185;SDS011;6658;53.080;7.428;2023-02-22T18:16:27;17.57;;;14.93;;